Manyberries, Canada
Current Conditions -  °F | °C
As of 5:00 PM on Friday 19 Dec 2014 (Local Time) from CYXH Reporting Station
Overcast Overcast  
Wind Chill: 26°   Ceiling: 23000
Heat Index: 32°   Visibility: 15mi
Dew Point: 30°   Wind: 7mph
Humidity: 93%   Direction: 190°S
Pressure: 29.71"   Gusts: NA
Location:  49.4°N, 110.7°W
Report Text: CYXH 200000Z 19006KT 15SM FEW150 OVC230 00/M01 A2971 RMK AC1CI7 SLP091
Loading
Personal Weather Stations






























Interactive Weather Map New forecast layout! Learn more

10-Day Weather Forecast

Advertisements
Track Severe Weather on mobile